sensor_id;sensor_type;location;lat;lon;timestamp;P1;durP1;ratioP1;P2;durP2;ratioP2
30378;SDS011;17168;49.164;9.060;2023-02-21T01:24:01;2.60;;;1.65;;
30378;SDS011;17168;49.164;9.060;2023-02-21T01:26:52;2.55;;;0.82;;
30378;SDS011;17168;49.164;9.060;2023-02-21T01:29:43;3.85;;;2.03;;
30378;SDS011;17168;49.164;9.060;2023-02-21T01:32:34;4.47;;;1.55;;
30378;SDS011;17168;49.164;9.060;2023-02-21T01:35:27;2.33;;;1.63;;
30378;SDS011;17168;49.164;9.060;2023-02-21T01:38:17;2.58;;;1.50;;
30378;SDS011;17168;49.164;9.060;2023-02-21T01:41:07;3.88;;;2.33;;
30378;SDS011;17168;49.164;9.060;2023-02-21T01:43:59;9.43;;;2.53;;
30378;SDS011;17168;49.164;9.060;2023-02-21T01:46:51;5.78;;;2.80;;
30378;SDS011;17168;49.164;9.060;2023-02-21T01:49:41;4.18;;;1.80;;
30378;SDS011;17168;49.164;9.060;2023-02-21T01:52:34;3.22;;;1.10;;
30378;SDS011;17168;49.164;9.060;2023-02-21T01:55:25;3.75;;;2.40;;
30378;SDS011;17168;49.164;9.060;2023-02-21T01:58:16;5.20;;;2.40;;
30378;SDS011;17168;49.164;9.060;2023-02-21T02:01:11;3.70;;;2.10;;
30378;SDS011;17168;49.164;9.060;2023-02-21T02:04:12;3.88;;;2.10;;
30378;SDS011;17168;49.164;9.060;2023-02-21T02:07:03;3.47;;;2.00;;
30378;SDS011;17168;49.164;9.060;2023-02-21T02:09:56;4.32;;;2.28;;
30378;SDS011;17168;49.164;9.060;2023-02-21T02:12:58;6.88;;;3.55;;
30378;SDS011;17168;49.164;9.060;2023-02-21T02:15:56;5.45;;;2.95;;
30378;SDS011;17168;49.164;9.060;2023-02-21T02:21:39;3.65;;;2.00;;
30378;SDS011;17168;49.164;9.060;2023-02-21T02:24:31;6.25;;;2.38;;
30378;SDS011;17168;49.164;9.060;2023-02-21T02:53:46;7.10;;;2.65;;
30378;SDS011;17168;49.164;9.060;2023-02-21T02:56:18;5.43;;;2.90;;
30378;SDS011;17168;49.164;9.060;2023-02-21T02:58:55;3.92;;;2.40;;
30378;SDS011;17168;49.164;9.060;2023-02-21T03:01:35;5.43;;;2.40;;
30378;SDS011;17168;49.164;9.060;2023-02-21T03:04:29;5.78;;;3.08;;
30378;SDS011;17168;49.164;9.060;2023-02-21T03:07:19;4.15;;;2.67;;
30378;SDS011;17168;49.164;9.060;2023-02-21T03:27:55;5.32;;;3.28;;
30378;SDS011;17168;49.164;9.060;2023-02-21T03:32:59;6.77;;;3.47;;
30378;SDS011;17168;49.164;9.060;2023-02-21T03:35:31;6.38;;;3.15;;
30378;SDS011;17168;49.164;9.060;2023-02-21T03:38:06;4.68;;;2.90;;
30378;SDS011;17168;49.164;9.060;2023-02-21T03:40:40;4.53;;;2.80;;
30378;SDS011;17168;49.164;9.060;2023-02-21T03:43:12;5.18;;;2.67;;
30378;SDS011;17168;49.164;9.060;2023-02-21T03:45:44;5.22;;;2.50;;
30378;SDS011;17168;49.164;9.060;2023-02-21T04:24:05;7.18;;;4.22;;
30378;SDS011;17168;49.164;9.060;2023-02-21T04:26:37;7.68;;;3.63;;
30378;SDS011;17168;49.164;9.060;2023-02-21T04:29:09;5.93;;;3.20;;
30378;SDS011;17168;49.164;9.060;2023-02-21T08:21:35;17.08;;;9.80;;
30378;SDS011;17168;49.164;9.060;2023-02-21T08:47:06;9.38;;;5.07;;
30378;SDS011;17168;49.164;9.060;2023-02-21T08:59:53;8.55;;;5.43;;
30378;SDS011;17168;49.164;9.060;2023-02-21T09:10:04;10.65;;;5.85;;
30378;SDS011;17168;49.164;9.060;2023-02-21T09:12:37;12.23;;;4.20;;
30378;SDS011;17168;49.164;9.060;2023-02-21T09:22:54;9.02;;;6.15;;
30378;SDS011;17168;49.164;9.060;2023-02-21T09:27:57;10.52;;;5.53;;
30378;SDS011;17168;49.164;9.060;2023-02-21T09:38:10;9.00;;;4.70;;
30378;SDS011;17168;49.164;9.060;2023-02-21T09:48:27;9.98;;;5.43;;
30378;SDS011;17168;49.164;9.060;2023-02-21T09:51:02;9.65;;;5.93;;
30378;SDS011;17168;49.164;9.060;2023-02-21T09:53:37;11.77;;;5.40;;
30378;SDS011;17168;49.164;9.060;2023-02-21T09:56:13;9.30;;;5.65;;
30378;SDS011;17168;49.164;9.060;2023-02-21T09:58:51;8.90;;;6.30;;
30378;SDS011;17168;49.164;9.060;2023-02-21T10:06:46;10.55;;;5.82;;
30378;SDS011;17168;49.164;9.060;2023-02-21T10:09:24;9.80;;;5.55;;
30378;SDS011;17168;49.164;9.060;2023-02-21T10:12:00;11.90;;;6.20;;
30378;SDS011;17168;49.164;9.060;2023-02-21T10:14:41;11.57;;;5.63;;
30378;SDS011;17168;49.164;9.060;2023-02-21T10:17:25;12.07;;;6.70;;
30378;SDS011;17168;49.164;9.060;2023-02-21T10:20:05;9.60;;;5.47;;
30378;SDS011;17168;49.164;9.060;2023-02-21T10:22:44;8.50;;;4.85;;
30378;SDS011;17168;49.164;9.060;2023-02-21T10:25:22;10.90;;;6.30;;
30378;SDS011;17168;49.164;9.060;2023-02-21T10:43:22;12.25;;;5.32;;
30378;SDS011;17168;49.164;9.060;2023-02-21T11:17:14;9.40;;;6.10;;
30378;SDS011;17168;49.164;9.060;2023-02-21T11:24:59;8.18;;;4.32;;
30378;SDS011;17168;49.164;9.060;2023-02-21T11:27:35;9.98;;;5.32;;
30378;SDS011;17168;49.164;9.060;2023-02-21T11:45:55;6.13;;;4.68;;
30378;SDS011;17168;49.164;9.060;2023-02-21T11:48:46;9.30;;;4.15;;
30378;SDS011;17168;49.164;9.060;2023-02-21T11:51:28;7.15;;;3.70;;
30378;SDS011;17168;49.164;9.060;2023-02-21T11:56:48;7.82;;;4.82;;
30378;SDS011;17168;49.164;9.060;2023-02-21T11:59:24;9.65;;;4.60;;
30378;SDS011;17168;49.164;9.060;2023-02-21T12:04:55;6.25;;;4.63;;
30378;SDS011;17168;49.164;9.060;2023-02-21T12:07:39;6.10;;;3.80;;
30378;SDS011;17168;49.164;9.060;2023-02-21T12:13:04;6.20;;;3.17;;
30378;SDS011;17168;49.164;9.060;2023-02-21T12:15:52;5.75;;;3.13;;
30378;SDS011;17168;49.164;9.060;2023-02-21T12:21:37;6.70;;;3.70;;
30378;SDS011;17168;49.164;9.060;2023-02-21T12:24:30;6.95;;;3.50;;
30378;SDS011;17168;49.164;9.060;2023-02-21T12:27:20;7.35;;;2.75;;
30378;SDS011;17168;49.164;9.060;2023-02-21T12:30:03;7.35;;;4.07;;
30378;SDS011;17168;49.164;9.060;2023-02-21T12:32:49;6.20;;;3.92;;
30378;SDS011;17168;49.164;9.060;2023-02-21T12:35:36;5.25;;;3.65;;
30378;SDS011;17168;49.164;9.060;2023-02-21T12:38:37;6.88;;;3.88;;
30378;SDS011;17168;49.164;9.060;2023-02-21T12:41:22;7.90;;;4.50;;
30378;SDS011;17168;49.164;9.060;2023-02-21T12:44:16;7.30;;;3.90;;
30378;SDS011;17168;49.164;9.060;2023-02-21T12:49:25;6.25;;;3.50;;
30378;SDS011;17168;49.164;9.060;2023-02-21T12:52:01;7.75;;;4.15;;
30378;SDS011;17168;49.164;9.060;2023-02-21T12:54:39;6.95;;;3.25;;
30378;SDS011;17168;49.164;9.060;2023-02-21T12:57:20;6.63;;;3.50;;
30378;SDS011;17168;49.164;9.060;2023-02-21T12:59:58;6.38;;;3.83;;
30378;SDS011;17168;49.164;9.060;2023-02-21T13:02:39;6.53;;;4.35;;
30378;SDS011;17168;49.164;9.060;2023-02-21T13:05:21;5.75;;;3.35;;
30378;SDS011;17168;49.164;9.060;2023-02-21T13:07:59;6.55;;;3.92;;
30378;SDS011;17168;49.164;9.060;2023-02-21T13:10:38;6.15;;;4.22;;
30378;SDS011;17168;49.164;9.060;2023-02-21T13:13:22;8.32;;;4.25;;
30378;SDS011;17168;49.164;9.060;2023-02-21T13:15:59;5.97;;;4.28;;
30378;SDS011;17168;49.164;9.060;2023-02-21T13:18:33;5.87;;;3.47;;
30378;SDS011;17168;49.164;9.060;2023-02-21T13:21:35;6.03;;;3.20;;
30378;SDS011;17168;49.164;9.060;2023-02-21T13:25:28;7.43;;;3.03;;
30378;SDS011;17168;49.164;9.060;2023-02-21T13:28:16;5.95;;;3.17;;
30378;SDS011;17168;49.164;9.060;2023-02-21T13:30:51;4.90;;;3.13;;
30378;SDS011;17168;49.164;9.060;2023-02-21T13:33:29;5.25;;;3.05;;
30378;SDS011;17168;49.164;9.060;2023-02-21T13:36:19;5.82;;;3.28;;
30378;SDS011;17168;49.164;9.060;2023-02-21T13:38:58;6.30;;;3.35;;
30378;SDS011;17168;49.164;9.060;2023-02-21T13:41:36;6.70;;;2.92;;
30378;SDS011;17168;49.164;9.060;2023-02-21T13:44:18;5.75;;;3.47;;
30378;SDS011;17168;49.164;9.060;2023-02-21T13:47:00;4.45;;;2.72;;
30378;SDS011;17168;49.164;9.060;2023-02-21T13:49:48;7.47;;;4.00;;
30378;SDS011;17168;49.164;9.060;2023-02-21T13:52:36;6.05;;;3.30;;
30378;SDS011;17168;49.164;9.060;2023-02-21T13:55:26;7.22;;;3.30;;
30378;SDS011;17168;49.164;9.060;2023-02-21T14:03:58;5.28;;;2.90;;
30378;SDS011;17168;49.164;9.060;2023-02-21T14:06:31;6.50;;;2.70;;
30378;SDS011;17168;49.164;9.060;2023-02-21T14:09:08;5.00;;;2.63;;
30378;SDS011;17168;49.164;9.060;2023-02-21T14:11:43;4.85;;;3.17;;
30378;SDS011;17168;49.164;9.060;2023-02-21T14:14:26;4.50;;;2.70;;
30378;SDS011;17168;49.164;9.060;2023-02-21T14:17:01;5.97;;;3.42;;
30378;SDS011;17168;49.164;9.060;2023-02-21T14:19:40;7.15;;;3.25;;
30378;SDS011;17168;49.164;9.060;2023-02-21T14:22:14;6.07;;;3.05;;
30378;SDS011;17168;49.164;9.060;2023-02-21T14:24:48;4.72;;;2.83;;
30378;SDS011;17168;49.164;9.060;2023-02-21T14:27:30;5.40;;;3.28;;
30378;SDS011;17168;49.164;9.060;2023-02-21T14:30:23;5.25;;;3.13;;
30378;SDS011;17168;49.164;9.060;2023-02-21T14:33:13;5.90;;;2.97;;
30378;SDS011;17168;49.164;9.060;2023-02-21T14:35:59;5.65;;;3.13;;
30378;SDS011;17168;49.164;9.060;2023-02-21T14:38:38;6.15;;;3.17;;
30378;SDS011;17168;49.164;9.060;2023-02-21T14:44:09;6.28;;;3.13;;
30378;SDS011;17168;49.164;9.060;2023-02-21T14:50:14;7.03;;;3.40;;
30378;SDS011;17168;49.164;9.060;2023-02-21T14:53:01;5.68;;;3.33;;
30378;SDS011;17168;49.164;9.060;2023-02-21T14:56:06;6.30;;;3.20;;
30378;SDS011;17168;49.164;9.060;2023-02-21T15:04:19;7.55;;;2.92;;
30378;SDS011;17168;49.164;9.060;2023-02-21T15:07:07;5.15;;;2.70;;
30378;SDS011;17168;49.164;9.060;2023-02-21T15:09:43;5.65;;;3.15;;
30378;SDS011;17168;49.164;9.060;2023-02-21T15:12:16;6.60;;;2.75;;
30378;SDS011;17168;49.164;9.060;2023-02-21T15:14:49;4.10;;;2.55;;
30378;SDS011;17168;49.164;9.060;2023-02-21T15:17:23;5.38;;;2.78;;
30378;SDS011;17168;49.164;9.060;2023-02-21T15:20:06;7.07;;;2.88;;
30378;SDS011;17168;49.164;9.060;2023-02-21T15:22:44;5.57;;;2.92;;
30378;SDS011;17168;49.164;9.060;2023-02-21T15:27:52;8.02;;;3.33;;
30378;SDS011;17168;49.164;9.060;2023-02-21T15:30:27;5.57;;;2.17;;
30378;SDS011;17168;49.164;9.060;2023-02-21T15:33:13;7.63;;;2.53;;
30378;SDS011;17168;49.164;9.060;2023-02-21T15:35:51;8.65;;;2.80;;
30378;SDS011;17168;49.164;9.060;2023-02-21T15:38:27;8.15;;;3.08;;
30378;SDS011;17168;49.164;9.060;2023-02-21T15:41:03;5.65;;;2.72;;
30378;SDS011;17168;49.164;9.060;2023-02-21T15:43:41;7.18;;;2.75;;
30378;SDS011;17168;49.164;9.060;2023-02-21T15:46:18;5.95;;;2.47;;
30378;SDS011;17168;49.164;9.060;2023-02-21T15:48:55;7.55;;;3.33;;
30378;SDS011;17168;49.164;9.060;2023-02-21T15:51:33;11.02;;;6.05;;
30378;SDS011;17168;49.164;9.060;2023-02-21T15:56:41;7.80;;;4.45;;
30378;SDS011;17168;49.164;9.060;2023-02-21T15:59:16;5.40;;;3.50;;
30378;SDS011;17168;49.164;9.060;2023-02-21T16:04:51;11.77;;;5.38;;
30378;SDS011;17168;49.164;9.060;2023-02-21T16:07:28;11.45;;;5.25;;
30378;SDS011;17168;49.164;9.060;2023-02-21T16:10:06;9.48;;;5.78;;
30378;SDS011;17168;49.164;9.060;2023-02-21T16:12:41;9.75;;;4.75;;
30378;SDS011;17168;49.164;9.060;2023-02-21T16:15:19;14.80;;;4.65;;
30378;SDS011;17168;49.164;9.060;2023-02-21T16:17:55;9.25;;;4.70;;
30378;SDS011;17168;49.164;9.060;2023-02-21T16:20:29;8.00;;;4.13;;
30378;SDS011;17168;49.164;9.060;2023-02-21T16:26:01;9.65;;;3.85;;
30378;SDS011;17168;49.164;9.060;2023-02-21T16:31:24;12.90;;;6.55;;
30378;SDS011;17168;49.164;9.060;2023-02-21T16:33:57;20.20;;;10.45;;
30378;SDS011;17168;49.164;9.060;2023-02-21T16:36:30;12.85;;;6.40;;
30378;SDS011;17168;49.164;9.060;2023-02-21T16:39:05;14.65;;;8.90;;
30378;SDS011;17168;49.164;9.060;2023-02-21T16:46:44;10.32;;;5.40;;
30378;SDS011;17168;49.164;9.060;2023-02-21T16:51:48;11.88;;;3.63;;
30378;SDS011;17168;49.164;9.060;2023-02-21T16:54:22;12.80;;;3.20;;
30378;SDS011;17168;49.164;9.060;2023-02-21T16:59:26;28.07;;;6.20;;
30378;SDS011;17168;49.164;9.060;2023-02-21T17:01:59;23.73;;;4.78;;
30378;SDS011;17168;49.164;9.060;2023-02-21T17:04:31;21.92;;;5.20;;
30378;SDS011;17168;49.164;9.060;2023-02-21T17:07:04;20.42;;;4.03;;
30378;SDS011;17168;49.164;9.060;2023-02-21T17:09:43;9.13;;;3.08;;
30378;SDS011;17168;49.164;9.060;2023-02-21T17:12:15;9.68;;;3.33;;
30378;SDS011;17168;49.164;9.060;2023-02-21T17:14:47;5.00;;;2.97;;
30378;SDS011;17168;49.164;9.060;2023-02-21T17:17:19;5.32;;;3.22;;
30378;SDS011;17168;49.164;9.060;2023-02-21T17:19:51;9.07;;;3.30;;
30378;SDS011;17168;49.164;9.060;2023-02-21T17:22:24;8.82;;;4.10;;
30378;SDS011;17168;49.164;9.060;2023-02-21T17:24:58;7.20;;;2.92;;
30378;SDS011;17168;49.164;9.060;2023-02-21T17:27:30;6.55;;;3.15;;
30378;SDS011;17168;49.164;9.060;2023-02-21T17:37:39;7.78;;;3.65;;
30378;SDS011;17168;49.164;9.060;2023-02-21T17:40:15;7.68;;;3.55;;
30378;SDS011;17168;49.164;9.060;2023-02-21T17:42:48;12.88;;;3.25;;
30378;SDS011;17168;49.164;9.060;2023-02-21T17:45:21;5.57;;;2.63;;
30378;SDS011;17168;49.164;9.060;2023-02-21T17:47:53;7.85;;;2.65;;
30378;SDS011;17168;49.164;9.060;2023-02-21T17:50:25;6.90;;;3.08;;
30378;SDS011;17168;49.164;9.060;2023-02-21T17:52:57;4.45;;;2.22;;
30378;SDS011;17168;49.164;9.060;2023-02-21T17:55:31;8.23;;;3.25;;
30378;SDS011;17168;49.164;9.060;2023-02-21T17:58:04;7.22;;;3.22;;
30378;SDS011;17168;49.164;9.060;2023-02-21T18:00:36;5.72;;;2.83;;
30378;SDS011;17168;49.164;9.060;2023-02-21T18:03:09;6.45;;;3.75;;
30378;SDS011;17168;49.164;9.060;2023-02-21T18:05:41;6.72;;;3.63;;
30378;SDS011;17168;49.164;9.060;2023-02-21T18:10:49;8.52;;;3.83;;
30378;SDS011;17168;49.164;9.060;2023-02-21T18:18:29;9.52;;;3.58;;
30378;SDS011;17168;49.164;9.060;2023-02-21T18:21:02;8.90;;;3.72;;
30378;SDS011;17168;49.164;9.060;2023-02-21T18:23:34;7.60;;;4.72;;
30378;SDS011;17168;49.164;9.060;2023-02-21T18:31:15;8.90;;;6.40;;
30378;SDS011;17168;49.164;9.060;2023-02-21T18:33:48;8.55;;;5.30;;
30378;SDS011;17168;49.164;9.060;2023-02-21T18:36:20;8.30;;;5.30;;
30378;SDS011;17168;49.164;9.060;2023-02-21T18:38:52;8.75;;;5.20;;
30378;SDS011;17168;49.164;9.060;2023-02-21T18:41:27;16.27;;;7.53;;
30378;SDS011;17168;49.164;9.060;2023-02-21T18:43:59;7.50;;;3.95;;
30378;SDS011;17168;49.164;9.060;2023-02-21T18:46:31;7.53;;;3.65;;
30378;SDS011;17168;49.164;9.060;2023-02-21T18:49:04;6.43;;;3.38;;
30378;SDS011;17168;49.164;9.060;2023-02-21T18:51:36;5.70;;;2.67;;
30378;SDS011;17168;49.164;9.060;2023-02-21T18:54:08;8.95;;;3.53;;
30378;SDS011;17168;49.164;9.060;2023-02-21T18:56:46;7.15;;;3.72;;
30378;SDS011;17168;49.164;9.060;2023-02-21T18:59:20;8.00;;;2.97;;
30378;SDS011;17168;49.164;9.060;2023-02-21T19:01:53;8.07;;;3.83;;
30378;SDS011;17168;49.164;9.060;2023-02-21T19:12:04;10.40;;;5.82;;
30378;SDS011;17168;49.164;9.060;2023-02-21T19:14:39;8.85;;;5.00;;
30378;SDS011;17168;49.164;9.060;2023-02-21T19:22:15;12.10;;;5.03;;
30378;SDS011;17168;49.164;9.060;2023-02-21T19:27:22;10.43;;;6.60;;
30378;SDS011;17168;49.164;9.060;2023-02-21T19:32:26;8.40;;;4.60;;
30378;SDS011;17168;49.164;9.060;2023-02-21T19:34:58;9.93;;;5.05;;
30378;SDS011;17168;49.164;9.060;2023-02-21T19:40:03;6.75;;;4.25;;
30378;SDS011;17168;49.164;9.060;2023-02-21T19:42:40;10.82;;;3.58;;
30378;SDS011;17168;49.164;9.060;2023-02-21T19:45:12;9.15;;;3.78;;
30378;SDS011;17168;49.164;9.060;2023-02-21T19:47:45;7.95;;;3.65;;
30378;SDS011;17168;49.164;9.060;2023-02-21T19:50:17;5.55;;;3.10;;
30378;SDS011;17168;49.164;9.060;2023-02-21T19:52:50;9.20;;;4.22;;
30378;SDS011;17168;49.164;9.060;2023-02-21T19:55:23;9.77;;;4.25;;
30378;SDS011;17168;49.164;9.060;2023-02-21T22:46:48;11.40;;;4.95;;
30378;SDS011;17168;49.164;9.060;2023-02-21T22:49:29;9.07;;;5.25;;
30378;SDS011;17168;49.164;9.060;2023-02-21T22:52:01;9.93;;;5.38;;
30378;SDS011;17168;49.164;9.060;2023-02-21T22:54:34;14.35;;;5.75;;
30378;SDS011;17168;49.164;9.060;2023-02-21T22:57:06;11.10;;;5.32;;
30378;SDS011;17168;49.164;9.060;2023-02-21T22:59:38;8.20;;;5.00;;
30378;SDS011;17168;49.164;9.060;2023-02-21T23:04:49;10.10;;;5.68;;
30378;SDS011;17168;49.164;9.060;2023-02-21T23:07:21;12.02;;;5.45;;
30378;SDS011;17168;49.164;9.060;2023-02-21T23:09:54;10.77;;;5.53;;
30378;SDS011;17168;49.164;9.060;2023-02-21T23:12:28;17.67;;;7.90;;
30378;SDS011;17168;49.164;9.060;2023-02-21T23:15:00;15.45;;;8.00;;
30378;SDS011;17168;49.164;9.060;2023-02-21T23:17:32;18.35;;;8.88;;
30378;SDS011;17168;49.164;9.060;2023-02-21T23:20:08;23.83;;;15.32;;
30378;SDS011;17168;49.164;9.060;2023-02-21T23:22:46;20.08;;;9.35;;
30378;SDS011;17168;49.164;9.060;2023-02-21T23:30:26;11.55;;;6.68;;
30378;SDS011;17168;49.164;9.060;2023-02-21T23:32:58;14.55;;;6.38;;
30378;SDS011;17168;49.164;9.060;2023-02-21T23:35:33;13.10;;;7.22;;
30378;SDS011;17168;49.164;9.060;2023-02-21T23:38:05;13.27;;;7.05;;
30378;SDS011;17168;49.164;9.060;2023-02-21T23:43:18;13.15;;;6.90;;
30378;SDS011;17168;49.164;9.060;2023-02-21T23:45:51;11.55;;;6.13;;
30378;SDS011;17168;49.164;9.060;2023-02-21T23:48:26;11.95;;;6.28;;
30378;SDS011;17168;49.164;9.060;2023-02-21T23:51:05;12.32;;;6.55;;
30378;SDS011;17168;49.164;9.060;2023-02-21T23:53:38;12.35;;;6.68;;
30378;SDS011;17168;49.164;9.060;2023-02-21T23:56:11;11.10;;;5.55;;
30378;SDS011;17168;49.164;9.060;2023-02-21T23:58:44;11.38;;;6.28;;
